Alpine, Texas
Current Conditions -  °F | °C
As of 12:15 AM on Sunday 26 Oct 2014 (Local Time) from KE38 Reporting Station
Clear Clear  
Wind Chill: 18°   Ceiling: Unl
Heat Index: 18°   Visibility: 10mi
Dew Point: 10°   Wind: 10mph
Humidity: 61%   Direction: 220°SW
Pressure: 30.25"   Gusts: NA
Location:  30.36°N, 103.66°W
Report Text: KE38 260515Z AUTO 22009KT 10SM CLR 18/10 A3025 RMK AO2 T01770101
Loading
Personal Weather Stations






























Interactive Weather Map
Tropical Storm Tracking
New forecast layout! Learn more

10-Day Weather Forecast

Advertisements
Track Severe Weather on mobile